Time;durP1;ratioP1;P1;durP2;ratioP2;P2;SDS_P1;SDS_P2;PMS_P1;PMS_P2;Temp;Humidity;BMP_temperature;BMP_pressure;BME280_temperature;BME280_humidity;BME280_pressure;Samples;Min_cycle;Max_cycle;Signal;HPM_P1;HPM_P2
2024/03/05 00:00:12;;;;;;;0.20;0.10;;;;;;;;;;5060673;28;20097;-82
2024/03/05 00:02:38;;;;;;;;;;;;;;;;;;5062831;28;20044;-82
2024/03/05 00:05:04;;;;;;;0.20;0.00;;;;;;;;;;5048034;28;19968;-83
2024/03/05 00:07:30;;;;;;;0.40;0.40;;;;;;;;;;5059352;28;20048;-82
2024/03/05 00:12:33;;;;;;;0.20;0.10;;;;;;;;;;5061680;28;20119;-84
2024/03/05 00:14:59;;;;;;;0.28;0.28;;;;;;;;;;5042871;28;20045;-85
2024/03/05 00:17:25;;;;;;;0.30;0.30;;;;;;;;;;5024674;28;20044;-85
2024/03/05 00:19:52;;;;;;;1.85;0.65;;;;;;;;;;5047284;28;20074;-85
2024/03/05 00:22:21;;;;;;;0.20;0.10;;;;;;;;;;5042920;28;20056;-84
2024/03/05 00:24:47;;;;;;;0.20;0.10;;;;;;;;;;5005979;28;20581;-84
2024/03/05 00:27:16;;;;;;;0.40;0.30;;;;;;;;;;5025491;28;20421;-84
2024/03/05 00:29:42;;;;;;;0.38;0.20;;;;;;;;;;5023960;28;20061;-85
2024/03/05 00:32:08;;;;;;;0.20;0.15;;;;;;;;;;5042392;28;20087;-84
2024/03/05 00:34:34;;;;;;;0.28;0.28;;;;;;;;;;5027430;28;20050;-84
2024/03/05 00:37:00;;;;;;;0.20;0.10;;;;;;;;;;5028447;28;20036;-84
2024/03/05 00:39:26;;;;;;;0.20;0.10;;;;;;;;;;5030010;28;20033;-84
2024/03/05 00:41:52;;;;;;;1.00;0.35;;;;;;;;;;5023998;28;20250;-84
2024/03/05 00:44:18;;;;;;;0.22;0.17;;;;;;;;;;5031230;28;20086;-84
2024/03/05 00:46:44;;;;;;;0.20;0.10;;;;;;;;;;5013662;28;20044;-84
2024/03/05 00:49:10;;;;;;;0.43;0.25;;;;;;;;;;5016313;28;20041;-84
2024/03/05 00:51:36;;;;;;;0.20;0.10;;;;;;;;;;5014415;28;20044;-84
2024/03/05 00:54:03;;;;;;;0.20;0.10;;;;;;;;;;5017056;28;20044;-84
2024/03/05 00:56:29;;;;;;;0.30;0.20;;;;;;;;;;5034058;28;20041;-85
2024/03/05 00:58:56;;;;;;;0.20;0.20;;;;;;;;;;5016243;28;20405;-84
2024/03/05 01:01:22;;;;;;;0.43;0.30;;;;;;;;;;5033085;28;20045;-84
2024/03/05 01:03:48;;;;;;;0.20;0.10;;;;;;;;;;5015311;28;20627;-84
2024/03/05 01:06:14;;;;;;;0.20;0.05;;;;;;;;;;5018137;28;20044;-84
2024/03/05 01:08:40;;;;;;;0.45;0.45;;;;;;;;;;5046665;28;20069;-84
2024/03/05 01:11:07;;;;;;;0.40;0.30;;;;;;;;;;5013731;28;20075;-84
2024/03/05 01:13:33;;;;;;;0.65;0.43;;;;;;;;;;5014547;28;20396;-84
2024/03/05 01:16:00;;;;;;;0.85;0.85;;;;;;;;;;5034291;28;21069;-84
2024/03/05 01:18:26;;;;;;;0.32;0.30;;;;;;;;;;5031834;28;20323;-84
2024/03/05 01:20:53;;;;;;;0.40;0.30;;;;;;;;;;5013284;28;20037;-84
2024/03/05 01:23:19;;;;;;;0.20;0.10;;;;;;;;;;5034695;28;20715;-84
2024/03/05 01:25:45;;;;;;;0.20;0.20;;;;;;;;;;5011948;28;20045;-84
2024/03/05 01:28:11;;;;;;;0.20;0.10;;;;;;;;;;5011909;28;20060;-84
2024/03/05 01:30:39;;;;;;;0.20;0.10;;;;;;;;;;5011228;28;20037;-84
2024/03/05 01:33:09;;;;;;;0.30;0.30;;;;;;;;;;5029637;28;20059;-84
2024/03/05 01:35:37;;;;;;;0.40;0.40;;;;;;;;;;5032770;28;20086;-84
2024/03/05 01:38:03;;;;;;;0.85;0.85;;;;;;;;;;5011798;28;20045;-84
2024/03/05 01:40:29;;;;;;;0.30;0.30;;;;;;;;;;5017715;28;20409;-84
2024/03/05 01:42:55;;;;;;;1.73;0.60;;;;;;;;;;5028953;28;20069;-84
2024/03/05 01:45:21;;;;;;;0.20;0.10;;;;;;;;;;5009855;28;20030;-84
2024/03/05 01:47:48;;;;;;;1.23;0.45;;;;;;;;;;5013024;28;20098;-84
2024/03/05 01:50:14;;;;;;;0.20;0.10;;;;;;;;;;5025318;28;20037;-84
2024/03/05 01:52:43;;;;;;;0.40;0.30;;;;;;;;;;5030440;28;20493;-84
2024/03/05 01:55:10;;;;;;;0.20;0.10;;;;;;;;;;5012231;28;20072;-84
2024/03/05 01:57:37;;;;;;;0.20;0.15;;;;;;;;;;5026954;28;20584;-84
2024/03/05 02:00:03;;;;;;;1.35;1.13;;;;;;;;;;5010373;28;20496;-84
2024/03/05 02:02:30;;;;;;;0.20;0.08;;;;;;;;;;5029223;28;20060;-84
2024/03/05 02:04:57;;;;;;;0.30;0.30;;;;;;;;;;5023549;28;20043;-84
2024/03/05 02:07:24;;;;;;;0.20;0.10;;;;;;;;;;5012601;28;20040;-84
2024/03/05 02:09:50;;;;;;;0.20;0.10;;;;;;;;;;5020931;28;20556;-84
2024/03/05 02:12:17;;;;;;;0.20;0.10;;;;;;;;;;5029029;28;20041;-84
2024/03/05 02:14:43;;;;;;;0.20;0.10;;;;;;;;;;5007147;28;20040;-84
2024/03/05 02:17:11;;;;;;;0.20;0.10;;;;;;;;;;5023830;28;20071;-84
2024/03/05 02:19:37;;;;;;;0.20;0.03;;;;;;;;;;5021111;28;20160;-84
2024/03/05 02:22:05;;;;;;;0.20;0.08;;;;;;;;;;5012585;28;20124;-83
2024/03/05 02:24:31;;;;;;;0.20;0.20;;;;;;;;;;5015043;28;20041;-84
2024/03/05 02:26:59;;;;;;;0.73;0.68;;;;;;;;;;5011414;28;20048;-84
2024/03/05 02:29:25;;;;;;;0.20;0.10;;;;;;;;;;5028911;28;20489;-84
2024/03/05 02:31:51;;;;;;;0.50;0.20;;;;;;;;;;5018426;28;20045;-84
2024/03/05 02:34:18;;;;;;;0.20;0.10;;;;;;;;;;5029248;28;20041;-84
2024/03/05 02:36:44;;;;;;;0.20;0.10;;;;;;;;;;5026848;28;20492;-83
2024/03/05 02:39:10;;;;;;;1.15;1.13;;;;;;;;;;5028604;28;20492;-84
2024/03/05 02:41:36;;;;;;;0.40;0.40;;;;;;;;;;5026134;28;20037;-84
2024/03/05 02:44:03;;;;;;;0.20;0.10;;;;;;;;;;5026007;28;20412;-83
2024/03/05 02:46:30;;;;;;;0.20;0.10;;;;;;;;;;5011725;28;20041;-84
2024/03/05 02:48:57;;;;;;;0.20;0.10;;;;;;;;;;5002262;28;20488;-84
2024/03/05 02:51:23;;;;;;;0.20;0.10;;;;;;;;;;5025783;28;20041;-84
2024/03/05 02:53:50;;;;;;;0.20;0.00;;;;;;;;;;5029059;28;20041;-84
2024/03/05 02:56:16;;;;;;;0.20;0.10;;;;;;;;;;5026684;28;20036;-84
2024/03/05 02:58:42;;;;;;;0.20;0.10;;;;;;;;;;5012598;28;20068;-84
2024/03/05 03:01:08;;;;;;;1.30;1.20;;;;;;;;;;5026797;28;20514;-84
2024/03/05 03:03:34;;;;;;;0.20;0.10;;;;;;;;;;5010575;28;20077;-83
2024/03/05 03:06:02;;;;;;;0.20;0.10;;;;;;;;;;5026476;28;20505;-83
2024/03/05 03:08:28;;;;;;;1.00;0.90;;;;;;;;;;5012462;28;20044;-83
2024/03/05 03:10:55;;;;;;;0.20;0.10;;;;;;;;;;5010287;28;20045;-84
2024/03/05 03:13:22;;;;;;;0.20;0.10;;;;;;;;;;5011916;28;20041;-84
2024/03/05 03:15:48;;;;;;;0.50;0.40;;;;;;;;;;5011014;28;20037;-84
2024/03/05 03:18:15;;;;;;;0.30;0.25;;;;;;;;;;5027937;28;20048;-84
2024/03/05 03:20:41;;;;;;;0.40;0.30;;;;;;;;;;5008733;28;20494;-83
2024/03/05 03:23:07;;;;;;;0.20;0.00;;;;;;;;;;5023850;28;20102;-83
2024/03/05 03:25:33;;;;;;;1.02;0.25;;;;;;;;;;5026351;28;20064;-84
2024/03/05 03:27:59;;;;;;;0.90;0.90;;;;;;;;;;5027821;28;20047;-83
2024/03/05 03:30:29;;;;;;;0.63;0.47;;;;;;;;;;5023706;28;20550;-83
2024/03/05 03:32:55;;;;;;;0.20;0.10;;;;;;;;;;5025051;28;20033;-83
2024/03/05 03:35:21;;;;;;;0.22;0.20;;;;;;;;;;5028159;28;20080;-83
2024/03/05 03:37:48;;;;;;;1.50;0.52;;;;;;;;;;5025319;28;20081;-83
2024/03/05 03:40:21;;;;;;;0.20;0.10;;;;;;;;;;5010063;28;20055;-83
2024/03/05 03:42:47;;;;;;;0.20;0.15;;;;;;;;;;5025411;28;20397;-83
2024/03/05 03:45:18;;;;;;;0.20;0.10;;;;;;;;;;5022491;28;20036;-84
2024/03/05 03:47:46;;;;;;;0.40;0.25;;;;;;;;;;5026183;28;20531;-83
2024/03/05 03:50:12;;;;;;;0.20;0.10;;;;;;;;;;5026814;28;20043;-83
2024/03/05 03:52:39;;;;;;;0.40;0.30;;;;;;;;;;5025596;28;20041;-83
2024/03/05 03:55:05;;;;;;;0.85;0.30;;;;;;;;;;5025768;28;20099;-83
2024/03/05 03:57:32;;;;;;;0.20;0.10;;;;;;;;;;5025315;28;20104;-83
2024/03/05 03:59:59;;;;;;;0.40;0.32;;;;;;;;;;5011279;28;20044;-84
2024/03/05 04:02:25;;;;;;;0.20;0.10;;;;;;;;;;5024061;28;20706;-83
2024/03/05 04:04:51;;;;;;;0.20;0.20;;;;;;;;;;5010983;28;20395;-83
2024/03/05 04:07:18;;;;;;;0.20;0.10;;;;;;;;;;5015071;28;20041;-83
2024/03/05 04:09:44;;;;;;;0.30;0.20;;;;;;;;;;5014302;28;20052;-83
2024/03/05 04:12:13;;;;;;;0.20;0.10;;;;;;;;;;5025116;28;20053;-83
2024/03/05 04:14:39;;;;;;;0.20;0.10;;;;;;;;;;5016563;28;20578;-83
2024/03/05 04:17:05;;;;;;;0.20;0.10;;;;;;;;;;5015748;28;20051;-83
2024/03/05 04:19:31;;;;;;;0.47;0.47;;;;;;;;;;5027320;28;20397;-83
2024/03/05 04:21:57;;;;;;;4.68;0.90;;;;;;;;;;5030963;28;20052;-83
2024/03/05 04:24:23;;;;;;;0.20;0.10;;;;;;;;;;5029464;28;20041;-84
2024/03/05 04:26:53;;;;;;;1.90;0.50;;;;;;;;;;5014867;28;20075;-83
2024/03/05 04:29:19;;;;;;;0.57;0.57;;;;;;;;;;5015933;28;20048;-82
2024/03/05 04:32:05;;;;;;;0.45;0.45;;;;;;;;;;5009645;28;20040;-83
2024/03/05 04:34:31;;;;;;;0.20;0.10;;;;;;;;;;5013970;28;20029;-83
2024/03/05 04:36:57;;;;;;;0.20;0.17;;;;;;;;;;5030233;28;20120;-83
2024/03/05 04:39:23;;;;;;;0.90;0.38;;;;;;;;;;5030988;28;20073;-83
2024/03/05 04:41:49;;;;;;;0.40;0.40;;;;;;;;;;5014145;28;20127;-83
2024/03/05 04:44:15;;;;;;;0.20;0.20;;;;;;;;;;5010035;28;20745;-83
2024/03/05 04:46:41;;;;;;;0.20;0.10;;;;;;;;;;5030885;28;20127;-83
2024/03/05 04:49:07;;;;;;;0.20;0.13;;;;;;;;;;5027045;28;20060;-83
2024/03/05 04:51:34;;;;;;;0.20;0.10;;;;;;;;;;5013987;28;20194;-83
2024/03/05 04:54:00;;;;;;;0.20;0.20;;;;;;;;;;5027345;28;20033;-83
2024/03/05 04:56:26;;;;;;;0.35;0.22;;;;;;;;;;5029074;28;20065;-83
2024/03/05 04:58:53;;;;;;;0.20;0.20;;;;;;;;;;5014339;28;20041;-83
2024/03/05 05:01:19;;;;;;;0.20;0.20;;;;;;;;;;5016078;28;20037;-84
2024/03/05 05:03:45;;;;;;;0.20;0.20;;;;;;;;;;5029353;28;20132;-83
2024/03/05 05:06:11;;;;;;;0.20;0.10;;;;;;;;;;5013335;28;20468;-83
2024/03/05 05:08:37;;;;;;;0.20;0.10;;;;;;;;;;5012862;28;20041;-84
2024/03/05 05:11:03;;;;;;;1.08;1.08;;;;;;;;;;5027216;28;20041;-83
2024/03/05 05:13:29;;;;;;;0.50;0.50;;;;;;;;;;5027840;28;20087;-83
2024/03/05 05:15:58;;;;;;;0.30;0.20;;;;;;;;;;5009247;28;20033;-83
2024/03/05 05:18:24;;;;;;;0.70;0.70;;;;;;;;;;5043340;28;20037;-83
2024/03/05 05:20:51;;;;;;;0.20;0.10;;;;;;;;;;5010159;28;20515;-83
2024/03/05 05:23:17;;;;;;;0.75;0.70;;;;;;;;;;5029950;28;20120;-84
2024/03/05 05:25:43;;;;;;;0.50;0.20;;;;;;;;;;5033580;28;20064;-83
2024/03/05 05:28:09;;;;;;;0.47;0.43;;;;;;;;;;5015245;28;20098;-83
2024/03/05 05:30:35;;;;;;;0.20;0.10;;;;;;;;;;5028538;28;20045;-83
2024/03/05 05:33:01;;;;;;;1.95;0.30;;;;;;;;;;5028399;28;20033;-84
2024/03/05 05:35:28;;;;;;;0.38;0.38;;;;;;;;;;5027531;28;20040;-83
2024/03/05 05:37:56;;;;;;;0.45;0.40;;;;;;;;;;5017360;28;20048;-84
2024/03/05 05:40:22;;;;;;;0.38;0.38;;;;;;;;;;5048002;28;20044;-83
2024/03/05 05:42:49;;;;;;;0.20;0.00;;;;;;;;;;5016698;28;20037;-83
2024/03/05 05:45:15;;;;;;;0.20;0.10;;;;;;;;;;5032091;28;20037;-83
2024/03/05 05:47:48;;;;;;;0.50;0.40;;;;;;;;;;5015892;28;20041;-83
2024/03/05 05:50:18;;;;;;;0.20;0.20;;;;;;;;;;5028954;28;20443;-83
2024/03/05 05:52:44;;;;;;;0.20;0.10;;;;;;;;;;5031055;28;20037;-83
2024/03/05 05:55:14;;;;;;;0.20;0.20;;;;;;;;;;5028339;28;20413;-83
2024/03/05 05:57:41;;;;;;;0.20;0.00;;;;;;;;;;5024593;28;20393;-83
2024/03/05 06:00:11;;;;;;;0.65;0.65;;;;;;;;;;5027567;28;20033;-83
2024/03/05 06:02:37;;;;;;;0.20;0.10;;;;;;;;;;5028426;28;20040;-83
2024/03/05 06:05:08;;;;;;;0.65;0.20;;;;;;;;;;5027067;28;20437;-83
2024/03/05 06:07:34;;;;;;;0.50;0.50;;;;;;;;;;5024654;28;20053;-83
2024/03/05 06:10:00;;;;;;;0.35;0.35;;;;;;;;;;5024036;28;20045;-83
2024/03/05 06:12:27;;;;;;;1.17;0.90;;;;;;;;;;5083397;23;20125;-80
2024/03/05 06:14:53;;;;;;;0.63;0.30;;;;;;;;;;5105053;28;20051;-80
2024/03/05 06:17:19;;;;;;;2.72;0.43;;;;;;;;;;5108975;28;20032;-80
2024/03/05 06:19:45;;;;;;;0.55;0.32;;;;;;;;;;5083058;28;20036;-81
2024/03/05 06:22:11;;;;;;;0.20;0.10;;;;;;;;;;5099245;28;20028;-81
2024/03/05 06:24:37;;;;;;;0.30;0.17;;;;;;;;;;5082324;28;20063;-80
2024/03/05 06:27:03;;;;;;;0.20;0.20;;;;;;;;;;5099218;28;20039;-80
2024/03/05 06:29:29;;;;;;;0.25;0.13;;;;;;;;;;5087711;28;20057;-81
2024/03/05 06:31:55;;;;;;;0.20;0.00;;;;;;;;;;5103032;28;20016;-82
2024/03/05 06:34:21;;;;;;;0.45;0.45;;;;;;;;;;5107997;28;20040;-82
2024/03/05 06:36:53;;;;;;;0.20;0.10;;;;;;;;;;5079030;28;20048;-81
2024/03/05 06:39:25;;;;;;;0.35;0.35;;;;;;;;;;5089562;28;20028;-82
2024/03/05 06:41:53;;;;;;;0.30;0.20;;;;;;;;;;5091646;28;20038;-82
2024/03/05 06:44:25;;;;;;;0.20;0.10;;;;;;;;;;5070984;28;20072;-83
2024/03/05 06:46:51;;;;;;;0.20;0.10;;;;;;;;;;5095499;28;20039;-82
2024/03/05 06:49:26;;;;;;;0.20;0.10;;;;;;;;;;5064891;28;20039;-81
2024/03/05 06:51:53;;;;;;;0.20;0.10;;;;;;;;;;5081956;28;20111;-82
2024/03/05 06:57:04;;;;;;;0.40;0.30;;;;;;;;;;5076705;28;20031;-82
2024/03/05 06:59:30;;;;;;;0.68;0.63;;;;;;;;;;5079223;28;20031;-81
2024/03/05 07:01:56;;;;;;;0.20;0.20;;;;;;;;;;5093874;28;20043;-81
2024/03/05 07:04:22;;;;;;;0.98;0.32;;;;;;;;;;5098954;28;20139;-82
2024/03/05 07:06:49;;;;;;;0.20;0.10;;;;;;;;;;5085317;28;20204;-81
2024/03/05 07:09:15;;;;;;;0.25;0.17;;;;;;;;;;5105759;28;20032;-83
2024/03/05 07:11:41;;;;;;;0.20;0.10;;;;;;;;;;5096622;28;20055;-82
2024/03/05 07:14:07;;;;;;;0.30;0.25;;;;;;;;;;5095478;28;20099;-81
2024/03/05 07:16:33;;;;;;;0.30;0.30;;;;;;;;;;5077402;28;20028;-81
2024/03/05 07:19:03;;;;;;;1.40;0.30;;;;;;;;;;5061246;28;20132;-82
2024/03/05 07:21:30;;;;;;;0.93;0.50;;;;;;;;;;5095599;28;20404;-81
2024/03/05 07:23:57;;;;;;;0.43;0.43;;;;;;;;;;5093666;28;20036;-81
2024/03/05 07:26:23;;;;;;;0.20;0.20;;;;;;;;;;5091984;28;20040;-82
2024/03/05 07:28:49;;;;;;;0.20;0.20;;;;;;;;;;5085964;28;20040;-81
2024/03/05 07:31:16;;;;;;;0.20;0.00;;;;;;;;;;5088695;28;20035;-81
2024/03/05 07:33:42;;;;;;;1.73;0.82;;;;;;;;;;5097066;28;20036;-82
2024/03/05 07:36:09;;;;;;;0.20;0.10;;;;;;;;;;5103300;28;20039;-82
2024/03/05 07:38:35;;;;;;;0.50;0.13;;;;;;;;;;5100316;28;20100;-82
2024/03/05 07:41:01;;;;;;;0.28;0.20;;;;;;;;;;5086135;28;20028;-82
2024/03/05 07:43:27;;;;;;;0.20;0.20;;;;;;;;;;5097897;28;20085;-82
2024/03/05 07:45:53;;;;;;;0.20;0.10;;;;;;;;;;5105000;28;20028;-82
2024/03/05 07:48:19;;;;;;;0.43;0.22;;;;;;;;;;5078412;28;20108;-81
2024/03/05 07:50:46;;;;;;;1.05;0.20;;;;;;;;;;5104019;28;20036;-82
2024/03/05 07:53:12;;;;;;;0.20;0.10;;;;;;;;;;5102255;28;20051;-81
2024/03/05 07:55:41;;;;;;;0.20;0.10;;;;;;;;;;5099094;28;20097;-80
2024/03/05 07:58:07;;;;;;;0.30;0.30;;;;;;;;;;5082500;28;20032;-81
2024/03/05 08:00:35;;;;;;;0.20;0.10;;;;;;;;;;5099642;28;20032;-81
2024/03/05 08:03:03;;;;;;;1.17;1.08;;;;;;;;;;5085224;28;20040;-81
2024/03/05 08:05:29;;;;;;;1.75;0.85;;;;;;;;;;5080541;28;20048;-82
2024/03/05 08:08:02;;;;;;;0.20;0.20;;;;;;;;;;5098954;28;20045;-81
2024/03/05 08:10:28;;;;;;;;;;;;;;;;;;5076482;28;20043;-81
2024/03/05 08:12:55;;;;;;;0.20;0.10;;;;;;;;;;5082181;28;19920;-81
2024/03/05 08:15:22;;;;;;;0.20;0.03;;;;;;;;;;5099176;28;20125;-82
2024/03/05 08:17:51;;;;;;;0.38;0.38;;;;;;;;;;5079696;28;20071;-81
2024/03/05 08:20:18;;;;;;;0.32;0.22;;;;;;;;;;5078874;28;20051;-80
2024/03/05 08:22:46;;;;;;;0.30;0.13;;;;;;;;;;5080665;28;20078;-82
2024/03/05 08:25:16;;;;;;;0.20;0.20;;;;;;;;;;5097067;28;20040;-82
2024/03/05 08:27:42;;;;;;;0.20;0.10;;;;;;;;;;5092198;28;20071;-80
2024/03/05 08:30:18;;;;;;;0.20;0.10;;;;;;;;;;5073189;28;20113;-81
2024/03/05 08:32:44;;;;;;;0.63;0.63;;;;;;;;;;5088840;28;20074;-80
2024/03/05 08:35:11;;;;;;;0.20;0.10;;;;;;;;;;5070463;28;20065;-80
2024/03/05 08:37:46;;;;;;;2.38;0.73;;;;;;;;;;5046227;28;20036;-80
2024/03/05 08:40:16;;;;;;;0.50;0.50;;;;;;;;;;5049484;28;20446;-79
2024/03/05 08:42:43;;;;;;;0.90;0.57;;;;;;;;;;5057930;28;20647;-80
2024/03/05 08:45:13;;;;;;;0.73;0.30;;;;;;;;;;5047746;28;20043;-81
2024/03/05 08:47:48;;;;;;;0.77;0.77;;;;;;;;;;5063743;28;20558;-81
2024/03/05 08:50:16;;;;;;;0.20;0.17;;;;;;;;;;5070723;28;20136;-79
2024/03/05 08:52:43;;;;;;;0.20;0.20;;;;;;;;;;5054298;28;20044;-80
2024/03/05 08:55:10;;;;;;;0.20;0.10;;;;;;;;;;5105072;28;20036;-81
2024/03/05 08:57:38;;;;;;;0.52;0.52;;;;;;;;;;5076018;28;20044;-81
2024/03/05 09:00:05;;;;;;;0.52;0.52;;;;;;;;;;5100074;28;20038;-81
2024/03/05 09:02:31;;;;;;;0.32;0.32;;;;;;;;;;5091042;28;20373;-81
2024/03/05 09:04:57;;;;;;;0.25;0.25;;;;;;;;;;5087155;28;20095;-81
2024/03/05 09:07:23;;;;;;;0.20;0.10;;;;;;;;;;5087175;28;20086;-79
2024/03/05 09:09:49;;;;;;;0.68;0.40;;;;;;;;;;5071257;28;20032;-81
2024/03/05 09:12:15;;;;;;;0.80;0.50;;;;;;;;;;5100207;28;20059;-82
2024/03/05 09:14:42;;;;;;;0.40;0.38;;;;;;;;;;5099630;28;20128;-81
2024/03/05 09:17:11;;;;;;;0.20;0.10;;;;;;;;;;5067905;28;20043;-83
2024/03/05 09:19:37;;;;;;;0.43;0.43;;;;;;;;;;5083494;28;20036;-82
2024/03/05 09:22:04;;;;;;;2.17;0.85;;;;;;;;;;5096038;28;20033;-82
2024/03/05 09:24:31;;;;;;;0.30;0.30;;;;;;;;;;5096557;28;20059;-80
2024/03/05 09:26:59;;;;;;;0.57;0.43;;;;;;;;;;5079234;28;20047;-81
2024/03/05 09:29:25;;;;;;;0.20;0.20;;;;;;;;;;5070092;28;20050;-81
2024/03/05 09:31:51;;;;;;;0.63;0.38;;;;;;;;;;5095787;28;20103;-81
2024/03/05 09:34:18;;;;;;;0.30;0.30;;;;;;;;;;5089251;28;20040;-81
2024/03/05 09:36:44;;;;;;;0.20;0.10;;;;;;;;;;5100228;28;20076;-81
2024/03/05 09:39:10;;;;;;;1.23;1.13;;;;;;;;;;5081271;28;20047;-81
2024/03/05 09:41:42;;;;;;;0.20;0.10;;;;;;;;;;5058313;28;20032;-80
2024/03/05 09:44:08;;;;;;;2.03;0.80;;;;;;;;;;5072950;28;20043;-80
2024/03/05 09:46:42;;;;;;;0.90;0.40;;;;;;;;;;5081586;28;20078;-81
2024/03/05 09:49:11;;;;;;;0.57;0.55;;;;;;;;;;5089019;28;20271;-81
2024/03/05 09:51:40;;;;;;;0.35;0.32;;;;;;;;;;5096947;28;20062;-80
2024/03/05 09:54:13;;;;;;;0.63;0.32;;;;;;;;;;5097049;28;20677;-81
2024/03/05 09:56:39;;;;;;;;;;;;;;;;;;5078535;28;20031;-82
2024/03/05 09:59:06;;;;;;;0.65;0.65;;;;;;;;;;5068781;28;19975;-81
2024/03/05 10:01:35;;;;;;;0.20;0.08;;;;;;;;;;5082260;28;20089;-81
2024/03/05 10:04:05;;;;;;;0.20;0.08;;;;;;;;;;5058861;28;20071;-80
2024/03/05 10:06:31;;;;;;;0.20;0.10;;;;;;;;;;5075812;28;20129;-79
2024/03/05 10:08:57;;;;;;;0.70;0.70;;;;;;;;;;5090366;28;20084;-81
2024/03/05 10:11:23;;;;;;;0.20;0.20;;;;;;;;;;5058787;28;20060;-81
2024/03/05 10:13:49;;;;;;;0.30;0.30;;;;;;;;;;5054478;28;20055;-83
2024/03/05 10:16:19;;;;;;;1.27;1.10;;;;;;;;;;5083512;28;20040;-81
2024/03/05 10:18:49;;;;;;;0.20;0.10;;;;;;;;;;5095094;28;20518;-80
2024/03/05 10:21:20;;;;;;;0.20;0.10;;;;;;;;;;5093175;28;20458;-81
2024/03/05 10:23:57;;;;;;;0.38;0.38;;;;;;;;;;5061957;28;20048;-81
2024/03/05 10:26:30;;;;;;;0.38;0.30;;;;;;;;;;5081486;28;20028;-82
2024/03/05 10:29:00;;;;;;;0.20;0.15;;;;;;;;;;5091666;28;20064;-81
2024/03/05 10:31:28;;;;;;;0.20;0.10;;;;;;;;;;5094501;28;20039;-81
2024/03/05 10:33:56;;;;;;;0.20;0.10;;;;;;;;;;5099110;28;20653;-81
2024/03/05 10:36:29;;;;;;;0.55;0.55;;;;;;;;;;5106221;28;20040;-82
2024/03/05 10:38:57;;;;;;;0.30;0.30;;;;;;;;;;5067851;28;20065;-82
2024/03/05 10:41:30;;;;;;;0.20;0.10;;;;;;;;;;5070420;28;20020;-82
2024/03/05 10:43:56;;;;;;;0.40;0.40;;;;;;;;;;5102198;28;20039;-82
2024/03/05 10:46:23;;;;;;;0.20;0.10;;;;;;;;;;5071852;28;20050;-81
2024/03/05 10:48:53;;;;;;;0.55;0.55;;;;;;;;;;5066009;28;20069;-80
2024/03/05 10:51:22;;;;;;;5.47;0.65;;;;;;;;;;5103752;28;20069;-81
2024/03/05 10:53:49;;;;;;;0.20;0.10;;;;;;;;;;5085748;28;20035;-81
2024/03/05 10:56:15;;;;;;;1.23;1.00;;;;;;;;;;5055786;28;20563;-81
2024/03/05 11:01:17;;;;;;;0.30;0.20;;;;;;;;;;5089364;28;20046;-81
2024/03/05 11:03:44;;;;;;;0.30;0.30;;;;;;;;;;5094934;28;20042;-81
2024/03/05 11:06:10;;;;;;;0.20;0.10;;;;;;;;;;5066281;28;20074;-81
2024/03/05 11:08:36;;;;;;;0.40;0.40;;;;;;;;;;5065305;28;20059;-80
2024/03/05 11:11:02;;;;;;;1.65;1.55;;;;;;;;;;5082101;28;20044;-80
2024/03/05 11:13:29;;;;;;;0.35;0.20;;;;;;;;;;5077303;28;20099;-81
2024/03/05 11:15:55;;;;;;;0.57;0.57;;;;;;;;;;5103651;28;20050;-81
2024/03/05 11:18:40;;;;;;;0.32;0.30;;;;;;;;;;5106555;28;20039;-81
2024/03/05 11:21:10;;;;;;;0.40;0.22;;;;;;;;;;5065597;28;20116;-80
2024/03/05 11:23:51;;;;;;;0.30;0.30;;;;;;;;;;5079705;28;20043;-80
2024/03/05 11:26:22;;;;;;;0.50;0.20;;;;;;;;;;5067664;28;20047;-81
2024/03/05 11:29:01;;;;;;;0.25;0.25;;;;;;;;;;5084115;28;20044;-82
2024/03/05 11:31:27;;;;;;;0.20;0.15;;;;;;;;;;5087787;28;20061;-80
2024/03/05 11:34:03;;;;;;;0.40;0.32;;;;;;;;;;5070512;28;20547;-80
2024/03/05 11:36:30;;;;;;;0.43;0.20;;;;;;;;;;5069003;28;20036;-82
2024/03/05 11:39:04;;;;;;;0.20;0.10;;;;;;;;;;5055644;28;20036;-81
2024/03/05 11:41:43;;;;;;;0.20;0.05;;;;;;;;;;5065746;28;20150;-81
2024/03/05 11:44:13;;;;;;;0.20;0.17;;;;;;;;;;5092746;28;20523;-80
2024/03/05 11:46:39;;;;;;;0.55;0.30;;;;;;;;;;5081502;28;20032;-82
2024/03/05 11:49:06;;;;;;;0.20;0.10;;;;;;;;;;5073790;28;20044;-80
2024/03/05 11:51:32;;;;;;;0.20;0.10;;;;;;;;;;5096216;28;20039;-82
2024/03/05 11:53:58;;;;;;;0.20;0.10;;;;;;;;;;5104202;28;20051;-81
2024/03/05 11:56:24;;;;;;;0.20;0.00;;;;;;;;;;5078053;28;20047;-81
2024/03/05 11:58:56;;;;;;;0.20;0.10;;;;;;;;;;5082447;28;20040;-80
2024/03/05 12:01:23;;;;;;;0.30;0.22;;;;;;;;;;5087048;28;20051;-81
2024/03/05 12:03:49;;;;;;;0.20;0.20;;;;;;;;;;5068773;28;20081;-81
2024/03/05 12:06:15;;;;;;;0.20;0.10;;;;;;;;;;5073376;28;20047;-80
2024/03/05 12:08:41;;;;;;;0.20;0.13;;;;;;;;;;5063361;28;20564;-81
2024/03/05 12:11:09;;;;;;;1.15;0.50;;;;;;;;;;5104614;22;21163;-83
2024/03/05 12:13:35;;;;;;;0.20;0.20;;;;;;;;;;5060930;28;20431;-84
2024/03/05 12:16:09;;;;;;;0.20;0.10;;;;;;;;;;5065897;28;20031;-84
2024/03/05 12:18:35;;;;;;;0.20;0.10;;;;;;;;;;5056091;28;20461;-81
2024/03/05 12:21:01;;;;;;;0.20;0.10;;;;;;;;;;5046990;28;20032;-83
2024/03/05 12:23:27;;;;;;;0.30;0.30;;;;;;;;;;5064804;28;20109;-84
2024/03/05 12:25:53;;;;;;;0.30;0.20;;;;;;;;;;5067198;28;20032;-82
2024/03/05 12:28:19;;;;;;;0.20;0.00;;;;;;;;;;5039299;28;20040;-83
2024/03/05 12:30:45;;;;;;;0.20;0.20;;;;;;;;;;5051023;28;20040;-83
2024/03/05 12:33:18;;;;;;;0.30;0.15;;;;;;;;;;5060025;28;20032;-81
2024/03/05 12:35:48;;;;;;;5.97;1.75;;;;;;;;;;5046942;28;20409;-82
2024/03/05 12:38:14;;;;;;;2.42;1.13;;;;;;;;;;5062174;28;20068;-81
2024/03/05 12:40:41;;;;;;;0.57;0.57;;;;;;;;;;5050384;28;20068;-82
2024/03/05 12:43:09;;;;;;;0.88;0.63;;;;;;;;;;5064888;28;20035;-81
2024/03/05 12:45:35;;;;;;;0.32;0.32;;;;;;;;;;5054302;28;20090;-81
2024/03/05 12:48:05;;;;;;;0.38;0.30;;;;;;;;;;5062225;28;20488;-81
2024/03/05 12:50:31;;;;;;;0.50;0.50;;;;;;;;;;5069360;28;20108;-82
2024/03/05 12:53:04;;;;;;;0.77;0.45;;;;;;;;;;5053048;28;20540;-81
2024/03/05 12:55:31;;;;;;;0.20;0.10;;;;;;;;;;5051794;28;20063;-81
2024/03/05 12:58:05;;;;;;;0.20;0.10;;;;;;;;;;5070736;28;20061;-81
2024/03/05 13:00:34;;;;;;;0.20;0.10;;;;;;;;;;5048653;28;20032;-81
2024/03/05 13:03:04;;;;;;;0.65;0.40;;;;;;;;;;5074052;28;20094;-79
2024/03/05 13:05:31;;;;;;;0.22;0.20;;;;;;;;;;5056426;28;20032;-81
2024/03/05 13:07:57;;;;;;;0.90;0.50;;;;;;;;;;5068245;28;20032;-79
2024/03/05 13:10:23;;;;;;;0.40;0.40;;;;;;;;;;5052082;28;20040;-82
2024/03/05 13:12:49;;;;;;;0.47;0.15;;;;;;;;;;5054698;28;20245;-81
2024/03/05 13:15:15;;;;;;;0.65;0.55;;;;;;;;;;5054661;28;20602;-80
2024/03/05 13:17:41;;;;;;;0.22;0.13;;;;;;;;;;5054045;28;20032;-81
2024/03/05 13:20:20;;;;;;;0.82;0.20;;;;;;;;;;5048034;28;20040;-82
2024/03/05 13:22:53;;;;;;;0.20;0.10;;;;;;;;;;5048091;28;20032;-81
2024/03/05 13:25:19;;;;;;;0.20;0.10;;;;;;;;;;5067283;28;20044;-82
2024/03/05 13:27:49;;;;;;;0.45;0.30;;;;;;;;;;5050960;28;20047;-83
2024/03/05 13:30:19;;;;;;;0.20;0.20;;;;;;;;;;5066031;28;20426;-81
2024/03/05 13:32:45;;;;;;;0.38;0.38;;;;;;;;;;5070507;28;20134;-82
2024/03/05 13:35:13;;;;;;;0.20;0.10;;;;;;;;;;5065026;28;20491;-81
2024/03/05 13:37:39;;;;;;;0.20;0.15;;;;;;;;;;5053297;28;20109;-81
2024/03/05 13:40:05;;;;;;;0.20;0.10;;;;;;;;;;5054728;28;20074;-82
2024/03/05 13:42:35;;;;;;;0.20;0.15;;;;;;;;;;5065705;28;20032;-81
2024/03/05 13:45:01;;;;;;;1.08;0.55;;;;;;;;;;5040128;28;20109;-80
2024/03/05 13:47:27;;;;;;;0.30;0.30;;;;;;;;;;5065589;28;20036;-83
2024/03/05 13:49:55;;;;;;;0.50;0.20;;;;;;;;;;5053047;28;20508;-80
2024/03/05 13:52:22;;;;;;;1.35;0.55;;;;;;;;;;5048184;28;20055;-82
2024/03/05 13:54:48;;;;;;;0.20;0.10;;;;;;;;;;5066426;28;20044;-80
2024/03/05 13:57:16;;;;;;;0.20;0.10;;;;;;;;;;5058673;28;20124;-81
2024/03/05 13:59:43;;;;;;;0.68;0.22;;;;;;;;;;5067666;28;20369;-81
2024/03/05 14:02:10;;;;;;;0.20;0.10;;;;;;;;;;5050040;28;20035;-81
2024/03/05 14:04:36;;;;;;;0.20;0.20;;;;;;;;;;5068047;28;20036;-80
2024/03/05 14:07:03;;;;;;;0.20;0.13;;;;;;;;;;5061616;28;20044;-80
2024/03/05 14:09:29;;;;;;;0.20;0.20;;;;;;;;;;5063905;28;20043;-81
2024/03/05 14:11:56;;;;;;;0.20;0.10;;;;;;;;;;5051741;28;20059;-82
2024/03/05 14:14:23;;;;;;;0.25;0.25;;;;;;;;;;5051412;28;20091;-82
2024/03/05 14:16:49;;;;;;;0.20;0.10;;;;;;;;;;5051836;28;20036;-80
2024/03/05 14:19:15;;;;;;;0.20;0.10;;;;;;;;;;5060714;28;20040;-81
2024/03/05 14:21:41;;;;;;;0.28;0.20;;;;;;;;;;5050958;28;20036;-81
2024/03/05 14:24:07;;;;;;;0.20;0.10;;;;;;;;;;5070501;28;20204;-81
2024/03/05 14:26:33;;;;;;;0.20;0.00;;;;;;;;;;5063651;28;20060;-80
2024/03/05 14:29:03;;;;;;;0.57;0.38;;;;;;;;;;5045028;28;20055;-81
2024/03/05 14:31:29;;;;;;;0.20;0.10;;;;;;;;;;5069446;28;20063;-81
2024/03/05 14:33:55;;;;;;;3.50;0.63;;;;;;;;;;5071731;28;20115;-80
2024/03/05 14:36:21;;;;;;;0.20;0.20;;;;;;;;;;5049076;28;20037;-81
2024/03/05 14:38:48;;;;;;;0.20;0.10;;;;;;;;;;5062398;28;20104;-81
2024/03/05 14:41:14;;;;;;;0.20;0.10;;;;;;;;;;5061436;28;20047;-82
2024/03/05 14:43:40;;;;;;;0.60;0.30;;;;;;;;;;5054054;28;20040;-82
2024/03/05 14:46:06;;;;;;;0.82;0.40;;;;;;;;;;5052027;28;20038;-80
2024/03/05 14:48:32;;;;;;;0.20;0.10;;;;;;;;;;5048583;28;20393;-80
2024/03/05 14:51:00;;;;;;;0.20;0.10;;;;;;;;;;5048567;28;20484;-80